»·PEaware :: N592DM KHND-KTNP

N592DM :: KHND-KTNP

FLIGHT INFORMATION

Flight Status: Arrived
Operator: Privately registered:
United States
More flights under this callsign
Pilot: Max W. (2591)
Aircraft: SOCATA TBM-900
(TBM9)
More flights by this aircraft type
Origin: KHND Henderson
United States
Destination: KTNP Twentynine Palms
United States
More flights between these airports :: More routes between these airports
Route: +GFS V514 TNP
File this flight plan on PilotEdge
Remarks:
Altitude:
(Current/Filed)
26,000ft
Speed:
(Current/Filed)
450kts
Departed: 13-Sep-18 10:38 AM
Arrived: 13-Sep-18 11:20 AM
Distance/Time
Traveled:
117nm/0:42
Distance/Time
To Go:
Arrived

Flight Plot

Page will automatically refresh every two minutes.

Flight plan parsing failed; only flown route is shown


Map Options




Map Legend


Flown Route
Filed Route
Departure Airport
Arrival Airport
Navaid (VOR, NDB)
Fix

Horizontal Profiles

Position Reports

Time Latitude Longitude Heading Altitude Ground
Speed
13-Sep-18 10:23 35.973100 -115.137679 359 2447ft 0kts
13-Sep-18 10:24 35.973100 -115.137679 359 2447ft 0kts
13-Sep-18 10:25 35.973100 -115.137679 359 2447ft 0kts
13-Sep-18 10:26 35.973100 -115.137679 359 2447ft 0kts
13-Sep-18 10:27 35.973100 -115.137679 359 2447ft 0kts
13-Sep-18 10:28 35.973150 -115.137665 21 2446ft 3kts
13-Sep-18 10:29 35.973231 -115.137534 80 2446ft 0kts
13-Sep-18 10:30 35.973251 -115.137397 79 2446ft 6kts
13-Sep-18 10:31 35.975250 -115.136917 357 2447ft 13kts
13-Sep-18 10:32 35.979457 -115.136854 3 2447ft 11kts
13-Sep-18 10:33 35.980803 -115.136404 73 2446ft 0kts
13-Sep-18 10:34 35.980803 -115.136404 72 2446ft 0kts
13-Sep-18 10:35 35.980803 -115.136404 72 2446ft 0kts
13-Sep-18 10:36 35.980803 -115.136404 72 2446ft 0kts
13-Sep-18 10:37 35.980805 -115.136395 76 2446ft 1kts
13-Sep-18 10:38 35.980821 -115.136165 89 2447ft 0kts
13-Sep-18 10:39 35.980821 -115.136165 89 2447ft 0kts
13-Sep-18 10:40 35.974480 -115.135350 175 2447ft 93kts
13-Sep-18 10:41 35.940110 -115.139264 191 3883ft 144kts
13-Sep-18 10:42 35.899518 -115.146597 191 5924ft 151kts
13-Sep-18 10:43 35.857529 -115.153459 191 8013ft 156kts
13-Sep-18 10:44 35.817364 -115.158963 191 10045ft 152kts
13-Sep-18 10:45 35.776658 -115.164158 191 10027ft 151kts
13-Sep-18 10:46 35.734455 -115.167449 187 12002ft 153kts
13-Sep-18 10:47 35.692404 -115.168200 187 14315ft 153kts
13-Sep-18 10:48 35.647426 -115.168918 186 15019ft 164kts
13-Sep-18 10:49 35.603149 -115.169546 187 15023ft 156kts
13-Sep-18 10:50 35.560204 -115.170176 187 15024ft 153kts
13-Sep-18 10:51 35.516409 -115.170853 187 15758ft 166kts
13-Sep-18 10:52 35.472452 -115.171454 187 17938ft 158kts
13-Sep-18 10:53 35.427887 -115.172121 188 19949ft 164kts
13-Sep-18 10:54 35.382687 -115.172782 188 21752ft 166kts
13-Sep-18 10:55 35.334973 -115.173546 187 22965ft 190kts
13-Sep-18 10:56 35.271977 -115.174462 185 22966ft 253kts
13-Sep-18 10:57 35.212747 -115.175117 188 25829ft 172kts
13-Sep-18 10:58 35.155558 -115.176163 186 25971ft 237kts
13-Sep-18 10:59 35.088777 -115.195397 204 25954ft 260kts
13-Sep-18 11:00 35.018937 -115.226107 204 25947ft 273kts
13-Sep-18 11:01 34.946703 -115.257977 204 25944ft 279kts
13-Sep-18 11:02 34.875808 -115.289211 203 25946ft 283kts
13-Sep-18 11:03 34.801869 -115.321730 203 25776ft 292kts
13-Sep-18 11:04 34.722841 -115.356409 203 24810ft 311kts
13-Sep-18 11:05 34.641270 -115.392118 203 23455ft 310kts
13-Sep-18 11:06 34.562575 -115.426499 203 21421ft 296kts
13-Sep-18 11:07 34.486271 -115.459786 203 19259ft 294kts
13-Sep-18 11:08 34.409690 -115.493117 203 16965ft 294kts
13-Sep-18 11:09 34.333015 -115.526307 201 14660ft 293kts
13-Sep-18 11:10 34.273815 -115.588499 225 12341ft 285kts
13-Sep-18 11:11 34.218012 -115.651279 224 10056ft 272kts
13-Sep-18 11:12 34.164810 -115.711000 224 7776ft 254kts
13-Sep-18 11:13 34.118189 -115.763266 224 7002ft 194kts
13-Sep-18 11:14 34.073538 -115.756068 110 6606ft 200kts
13-Sep-18 11:15 34.074225 -115.689307 77 5880ft 198kts
13-Sep-18 11:16 34.111371 -115.682319 287 5126ft 173kts
13-Sep-18 11:17 34.112027 -115.742390 269 4977ft 175kts
13-Sep-18 11:18 34.115693 -115.793075 276 4590ft 139kts
13-Sep-18 11:19 34.121672 -115.837538 276 3648ft 147kts
13-Sep-18 11:20 34.130215 -115.886220 283 2757ft 142kts
13-Sep-18 11:21 34.134509 -115.922957 268 2087ft 94kts
13-Sep-18 11:22 34.134641 -115.941591 5 1890ft 7kts
13-Sep-18 11:23 34.135458 -115.944176 198 1890ft 0kts
13-Sep-18 11:24 34.135458 -115.944176 198 1890ft 0kts
13-Sep-18 11:25 34.135458 -115.944176 198 1890ft 0kts

Navigation Log

Ident Type
Flight plan parsing failed, navigation log unavailable